Time;durP1;ratioP1;P1;durP2;ratioP2;P2;SDS_P1;SDS_P2;PMS_P1;PMS_P2;Temp;Humidity;BMP_temperature;BMP_pressure;BME280_temperature;BME280_humidity;BME280_pressure;Samples;Min_cycle;Max_cycle;Signal;HPM_P1;HPM_P2
2022/08/19 00:01:45;;;;;;;9.63;7.80;;;;;;;22.62;69.25;98019.13;1709056;84;25710;-59
2022/08/19 00:04:15;;;;;;;12.28;8.70;;;;;;;22.62;68.92;98020.52;1709308;84;25544;-60
2022/08/19 00:06:45;;;;;;;9.15;7.97;;;;;;;22.62;69.06;98013.54;1709291;84;25622;-60
2022/08/19 00:09:15;;;;;;;10.90;8.40;;;;;;;22.58;69.29;98009.38;1709241;84;27508;-59
2022/08/19 00:11:43;;;;;;;11.05;8.60;;;;;;;22.58;69.14;98013.56;1709142;84;25605;-60
2022/08/19 00:14:13;;;;;;;9.48;7.83;;;;;;;22.59;69.13;98014.36;1709079;84;25686;-60
2022/08/19 00:16:42;;;;;;;9.33;8.03;;;;;;;22.55;69.40;98011.56;1709282;84;26329;-60
2022/08/19 00:19:09;;;;;;;11.40;8.28;;;;;;;22.53;69.49;98008.38;1709234;84;25442;-60
2022/08/19 00:21:39;;;;;;;9.23;7.95;;;;;;;22.44;69.85;98010.24;1708730;84;27493;-59
2022/08/19 00:24:09;;;;;;;9.97;7.87;;;;;;;22.29;70.17;97990.83;1709124;84;25657;-59
2022/08/19 00:26:36;;;;;;;10.82;8.58;;;;;;;22.29;70.17;97990.83;1708617;84;30433;-60
2022/08/19 00:29:05;;;;;;;10.18;8.75;;;;;;;22.37;69.99;97998.55;1717517;81;25572;-59
2022/08/19 00:31:31;;;;;;;10.03;8.10;;;;;;;22.37;70.13;97999.14;1735792;82;25468;-59
2022/08/19 00:33:57;;;;;;;11.38;8.55;;;;;;;22.33;70.52;97985.20;1735593;82;27334;-59
2022/08/19 00:36:24;;;;;;;9.73;7.85;;;;;;;22.30;70.62;97986.83;1735185;82;25910;-59
2022/08/19 00:38:51;;;;;;;11.90;8.85;;;;;;;22.25;70.95;97988.64;1735396;82;25654;-59
2022/08/19 00:41:21;;;;;;;9.45;8.03;;;;;;;22.23;70.58;97983.29;1735510;82;25467;-59
2022/08/19 00:44:13;;;;;;;9.75;8.50;;;;;;;22.19;70.75;97985.50;1735963;82;25617;-59
2022/08/19 00:46:44;;;;;;;11.40;8.43;;;;;;;22.22;70.56;97985.27;1734058;82;27455;-60
2022/08/19 00:49:24;;;;;;;10.98;8.50;;;;;;;22.23;70.94;97979.10;1735716;82;25661;-60
2022/08/19 00:51:54;;;;;;;;;;;;;;;22.17;71.36;97973.95;1738419;82;25511;-59
2022/08/19 00:54:21;;;;;;;11.55;8.73;;;;;;;22.14;71.36;97971.20;1733581;82;26334;-60
2022/08/19 00:56:51;;;;;;;12.20;8.93;;;;;;;22.12;71.21;97966.03;1735862;82;25464;-61
2022/08/19 00:59:19;;;;;;;12.03;9.03;;;;;;;22.08;71.32;97965.27;1735642;82;27604;-60
2022/08/19 01:01:46;;;;;;;11.80;8.95;;;;;;;22.02;71.65;97962.72;1735625;82;25703;-61
2022/08/19 01:04:13;;;;;;;11.08;8.83;;;;;;;21.99;71.48;97957.33;1735546;82;25540;-60
2022/08/19 01:06:41;;;;;;;10.30;8.83;;;;;;;21.97;72.15;97960.34;1735575;82;25652;-60
2022/08/19 01:09:08;;;;;;;11.97;9.15;;;;;;;21.97;71.70;97958.36;1735682;82;25421;-59
2022/08/19 01:11:39;;;;;;;12.13;8.43;;;;;;;21.96;71.93;97956.75;1735409;82;29523;-60
2022/08/19 01:14:07;;;;;;;10.75;8.65;;;;;;;21.94;71.96;97953.59;1706899;82;25680;-60
2022/08/19 01:16:35;;;;;;;12.68;9.40;;;;;;;21.93;71.95;97960.36;1735688;82;25638;-61
2022/08/19 01:19:04;;;;;;;12.00;8.73;;;;;;;21.95;71.91;97964.94;1735493;82;26321;-60
2022/08/19 01:21:39;;;;;;;12.70;9.20;;;;;;;21.96;71.87;97959.55;1735985;82;25627;-60
2022/08/19 01:24:05;;;;;;;10.30;8.68;;;;;;;21.94;72.45;97950.19;1734118;82;28221;-60
2022/08/19 01:26:37;;;;;;;9.63;8.55;;;;;;;21.91;72.18;97954.41;1735614;82;25592;-60
2022/08/19 01:29:03;;;;;;;11.08;8.58;;;;;;;21.87;72.46;97951.64;1735105;82;25419;-60
2022/08/19 01:31:32;;;;;;;10.15;8.95;;;;;;;21.87;72.54;97948.84;1735368;82;25661;-59
2022/08/19 01:34:00;;;;;;;12.28;9.18;;;;;;;21.83;72.43;97950.06;1735353;82;25709;-60
2022/08/19 01:36:41;;;;;;;13.13;9.05;;;;;;;21.80;73.11;97952.48;1735304;82;27480;-60
2022/08/19 01:39:12;;;;;;;10.23;9.08;;;;;;;21.77;72.80;97950.52;1735640;82;25831;-61
2022/08/19 01:41:38;;;;;;;11.10;9.23;;;;;;;21.73;73.19;97948.92;1735640;82;25625;-60
2022/08/19 01:44:08;;;;;;;11.83;9.10;;;;;;;21.71;73.06;97948.52;1735239;82;27556;-60
2022/08/19 01:46:35;;;;;;;13.28;9.60;;;;;;;21.64;73.36;97955.72;1735679;82;25508;-59
2022/08/19 01:49:03;;;;;;;11.30;9.13;;;;;;;21.60;73.67;97948.58;1735362;82;27405;-60
2022/08/19 01:51:30;;;;;;;11.80;9.43;;;;;;;21.60;73.56;97947.98;1735583;82;25705;-59
2022/08/19 01:53:57;;;;;;;10.35;9.20;;;;;;;21.59;73.97;97942.22;1735316;82;25443;-59
2022/08/19 01:56:25;;;;;;;10.82;9.55;;;;;;;21.55;74.17;97942.23;1735553;82;25676;-59
2022/08/19 01:59:02;;;;;;;13.78;9.48;;;;;;;21.50;74.86;97947.44;1735646;82;25423;-59
2022/08/19 02:01:31;;;;;;;9.75;8.63;;;;;;;21.45;74.22;97954.23;1735621;82;27384;-59
2022/08/19 02:03:58;;;;;;;11.35;9.20;;;;;;;21.48;74.12;97954.02;1735300;81;25498;-59
2022/08/19 02:06:24;;;;;;;11.53;9.88;;;;;;;21.46;74.26;97959.19;1735252;82;25639;-60
2022/08/19 02:08:50;;;;;;;11.95;9.45;;;;;;;21.45;74.46;97957.02;1735846;82;25602;-60
2022/08/19 02:11:26;;;;;;;11.10;9.68;;;;;;;21.45;74.63;97952.84;1735480;82;25486;-60
2022/08/19 02:13:54;;;;;;;14.43;9.75;;;;;;;21.41;74.84;97950.64;1735382;82;27392;-60
2022/08/19 02:16:21;;;;;;;11.93;9.25;;;;;;;21.34;74.81;97944.52;1735470;82;26142;-59
2022/08/19 02:18:48;;;;;;;12.10;9.00;;;;;;;21.30;75.36;97948.70;1735592;82;25299;-60
2022/08/19 02:21:16;;;;;;;13.43;10.53;;;;;;;21.29;75.68;97945.73;1735265;82;27469;-60
2022/08/19 02:23:43;;;;;;;12.23;8.75;;;;;;;21.31;75.01;97942.54;1735822;82;25648;-60
2022/08/19 02:26:12;;;;;;;13.10;10.03;;;;;;;21.26;75.82;97938.17;1735527;82;27455;-59
2022/08/19 02:28:39;;;;;;;11.85;9.45;;;;;;;21.23;75.40;97934.00;1735449;82;25740;-60
2022/08/19 02:31:12;;;;;;;13.40;9.88;;;;;;;21.23;75.32;97925.05;1735574;81;25602;-59
2022/08/19 02:33:38;;;;;;;12.43;9.63;;;;;;;21.21;75.30;97931.62;1735963;82;25672;-60
2022/08/19 02:36:07;;;;;;;11.90;9.83;;;;;;;21.22;75.53;97931.03;1736026;82;25482;-60
2022/08/19 02:38:36;;;;;;;11.63;10.10;;;;;;;21.23;75.40;97937.59;1735965;82;27399;-59
2022/08/19 02:41:14;;;;;;;10.78;9.55;;;;;;;21.22;75.76;97935.21;1735792;82;26107;-59
2022/08/19 02:43:40;;;;;;;12.13;9.93;;;;;;;21.18;75.92;97933.23;1735440;82;25412;-60
2022/08/19 02:46:21;;;;;;;13.88;9.48;;;;;;;21.16;75.62;97929.27;1736055;82;25652;-60
2022/08/19 02:48:52;;;;;;;12.10;9.80;;;;;;;21.17;75.89;97929.45;1671127;85;25839;-59
2022/08/19 02:51:29;;;;;;;14.00;9.68;;;;;;;21.13;75.85;97929.45;1672281;85;26981;-59
2022/08/19 02:53:56;;;;;;;10.72;9.40;;;;;;;21.10;76.18;97933.05;1667773;85;25896;-59
2022/08/19 02:56:24;;;;;;;13.83;9.45;;;;;;;21.05;76.49;97928.72;1672054;85;25655;-59
2022/08/19 02:58:51;;;;;;;12.03;10.20;;;;;;;21.01;76.60;97920.95;1671897;85;25714;-59
2022/08/19 03:01:31;;;;;;;11.60;9.23;;;;;;;20.98;76.46;97918.97;1672389;85;25524;-60
2022/08/19 03:04:02;;;;;;;11.97;9.80;;;;;;;21.01;76.60;97923.73;1672055;85;27464;-59
2022/08/19 03:06:29;;;;;;;13.03;9.78;;;;;;;21.00;76.48;97921.34;1672035;85;26097;-59
2022/08/19 03:08:57;;;;;;;11.05;9.58;;;;;;;20.98;76.57;97914.79;1671891;85;25627;-59
2022/08/19 03:11:29;;;;;;;13.93;10.10;;;;;;;20.95;76.77;97914.20;1671773;85;25476;-60
2022/08/19 03:13:55;;;;;;;10.93;9.43;;;;;;;20.96;76.71;97899.69;1672024;85;25683;-59
2022/08/19 03:16:25;;;;;;;12.50;9.55;;;;;;;20.96;76.89;97908.84;1672219;85;27385;-60
2022/08/19 03:18:52;;;;;;;11.53;9.78;;;;;;;20.97;76.87;97912.41;1672291;85;25745;-59
2022/08/19 03:21:24;;;;;;;11.97;9.63;;;;;;;20.98;76.48;97930.11;1671899;85;25698;-60
2022/08/19 03:23:57;;;;;;;12.20;9.10;;;;;;;20.99;76.53;97942.86;1672241;85;25492;-60
2022/08/19 03:26:24;;;;;;;11.70;9.55;;;;;;;20.99;76.57;97940.66;1726748;82;25630;-59
2022/08/19 03:28:51;;;;;;;13.35;10.15;;;;;;;21.06;76.24;97943.41;1735593;82;27553;-60
2022/08/19 03:31:22;;;;;;;12.33;10.15;;;;;;;21.06;76.32;97944.81;1754306;81;25733;-59
2022/08/19 03:33:51;;;;;;;13.03;10.15;;;;;;;21.06;76.01;97944.81;1756917;81;25657;-60
2022/08/19 03:36:22;;;;;;;11.85;9.18;;;;;;;21.08;76.01;97939.64;1756982;81;25645;-60
2022/08/19 03:38:54;;;;;;;13.40;9.83;;;;;;;21.05;76.30;97937.07;1757231;81;25460;-59
2022/08/19 03:41:25;;;;;;;12.28;10.32;;;;;;;21.03;76.03;97938.06;1756895;81;27354;-59
2022/08/19 03:43:53;;;;;;;14.68;9.90;;;;;;;21.04;76.05;97936.86;1757223;81;25415;-59
2022/08/19 03:46:24;;;;;;;12.10;10.25;;;;;;;21.03;76.13;97940.04;1757230;81;25664;-60
2022/08/19 03:48:54;;;;;;;12.05;10.30;;;;;;;20.99;76.42;97935.89;1757151;81;26461;-59
2022/08/19 03:51:24;;;;;;;11.50;10.27;;;;;;;20.96;76.38;97952.02;1757373;81;25423;-60
2022/08/19 03:53:53;;;;;;;13.35;9.80;;;;;;;20.95;76.47;97958.76;1731524;82;28200;-60
2022/08/19 03:56:20;;;;;;;11.18;9.90;;;;;;;20.93;76.47;97958.38;1734805;82;25727;-60
2022/08/19 03:58:46;;;;;;;13.65;9.90;;;;;;;20.88;76.74;97966.52;1755903;81;25658;-59
2022/08/19 04:01:17;;;;;;;14.47;10.70;;;;;;;20.89;77.00;97969.49;1755873;81;25652;-59
2022/08/19 04:03:47;;;;;;;13.72;10.23;;;;;;;20.94;76.68;97968.31;1756206;81;25700;-60
2022/08/19 04:06:25;;;;;;;13.40;10.35;;;;;;;20.98;76.74;97969.72;1757051;81;27646;-60
2022/08/19 04:08:53;;;;;;;13.32;9.73;;;;;;;20.98;76.73;97969.09;1756504;81;26056;-59
2022/08/19 04:11:25;;;;;;;11.70;10.18;;;;;;;20.98;76.80;97974.67;1734029;81;25473;-60
2022/08/19 04:13:53;;;;;;;13.88;9.75;;;;;;;21.03;76.56;97986.80;1756862;81;25572;-59
2022/08/19 04:16:28;;;;;;;12.50;9.68;;;;;;;21.06;76.40;97980.43;1757360;81;25633;-60
2022/08/19 04:18:52;;;;;;;12.23;9.63;;;;;;;21.09;76.38;97987.77;1756697;81;25936;-59
2022/08/19 04:21:24;;;;;;;12.55;9.93;;;;;;;21.16;75.98;97991.95;1757123;81;25408;-60
2022/08/19 04:23:51;;;;;;;12.58;10.03;;;;;;;21.19;75.94;97990.53;1757234;81;25613;-60
2022/08/19 04:26:25;;;;;;;11.78;9.58;;;;;;;21.24;75.80;97993.50;1757099;81;26335;-60
2022/08/19 04:28:52;;;;;;;13.32;10.23;;;;;;;21.30;75.65;97998.09;1756959;81;25609;-60
2022/08/19 04:31:25;;;;;;;12.68;9.83;;;;;;;21.33;75.45;97997.28;1756782;81;27441;-60
2022/08/19 04:33:58;;;;;;;12.53;9.58;;;;;;;21.38;75.19;97999.63;1757041;81;25744;-60
2022/08/19 04:36:28;;;;;;;13.22;9.48;;;;;;;21.43;75.08;98004.00;1757160;81;25629;-60
2022/08/19 04:38:59;;;;;;;12.93;10.28;;;;;;;21.46;74.94;98007.38;1757277;81;25671;-60
2022/08/19 04:44:12;;;;;;;13.08;10.05;;;;;;;21.52;74.77;98005.76;1756889;81;25640;-60
2022/08/19 04:46:38;;;;;;;12.80;10.55;;;;;;;21.59;74.56;97997.98;1757012;81;25751;-60
2022/08/19 04:49:06;;;;;;;13.10;9.85;;;;;;;21.66;74.38;97996.55;1757308;81;25744;-59
2022/08/19 04:51:34;;;;;;;16.62;10.25;;;;;;;21.73;74.15;97997.09;1757068;81;25906;-60
2022/08/19 04:54:02;;;;;;;13.05;10.15;;;;;;;21.83;73.93;97992.70;1757377;81;25577;-60
2022/08/19 04:56:29;;;;;;;14.13;10.38;;;;;;;21.90;73.72;98002.42;1756802;81;27411;-60
2022/08/19 04:58:56;;;;;;;11.93;9.50;;;;;;;21.97;73.49;97997.41;1757253;81;25676;-61
2022/08/19 05:01:29;;;;;;;15.08;9.90;;;;;;;22.03;73.27;97999.16;1757079;81;25665;-60
2022/08/19 05:03:56;;;;;;;13.03;9.70;;;;;;;22.08;73.26;97998.75;1757194;81;26390;-59
2022/08/19 05:06:23;;;;;;;15.60;10.48;;;;;;;22.17;72.79;97999.68;1733662;81;25665;-60
2022/08/19 05:08:50;;;;;;;13.60;10.10;;;;;;;22.26;72.54;98002.00;1757122;81;27522;-60
2022/08/19 05:11:24;;;;;;;13.05;9.70;;;;;;;22.36;72.37;98008.73;1757268;81;25418;-60
2022/08/19 05:13:51;;;;;;;12.70;9.80;;;;;;;22.38;72.00;97997.92;1757136;81;25688;-61
2022/08/19 05:16:20;;;;;;;11.33;9.65;;;;;;;22.37;72.10;98002.73;1756803;81;26484;-61
2022/08/19 05:24:43;;;;;;;12.68;11.05;;;;;;;22.49;71.61;98004.83;1756999;81;25406;-61
2022/08/19 05:27:09;;;;;;;15.10;11.48;;;;;;;22.51;71.51;98004.59;1757110;81;25624;-60
2022/08/19 05:29:35;;;;;;;16.82;12.58;;;;;;;22.57;71.49;98011.95;1757091;81;25502;-60
2022/08/19 05:32:05;;;;;;;16.32;12.13;;;;;;;22.66;71.41;98008.71;1756708;81;25408;-60
2022/08/19 05:34:32;;;;;;;15.23;12.85;;;;;;;22.79;71.03;98011.19;1757421;81;27563;-60
2022/08/19 05:37:01;;;;;;;17.07;12.82;;;;;;;22.90;70.79;98006.89;1756963;81;25637;-60
2022/08/19 05:39:32;;;;;;;14.00;12.13;;;;;;;23.05;70.42;98009.53;1757191;81;25716;-60
2022/08/19 05:42:07;;;;;;;16.85;11.80;;;;;;;23.10;70.18;98005.50;1757047;81;25689;-60
2022/08/19 05:44:39;;;;;;;14.40;10.32;;;;;;;23.19;69.74;98003.81;1757184;81;25670;-60
2022/08/19 05:47:08;;;;;;;11.90;9.83;;;;;;;23.24;69.66;98010.95;1756861;81;27402;-60
2022/08/19 05:49:36;;;;;;;11.65;9.63;;;;;;;23.34;69.24;98004.27;1757142;81;25656;-60
2022/08/19 05:52:10;;;;;;;15.32;9.93;;;;;;;23.34;69.09;98015.44;1756978;81;25655;-60
2022/08/19 05:54:42;;;;;;;14.70;10.13;;;;;;;23.40;68.85;98022.19;1757171;81;25461;-60
2022/08/19 05:57:10;;;;;;;14.47;10.00;;;;;;;23.45;68.63;98019.55;1756885;81;25879;-60
2022/08/19 05:59:37;;;;;;;13.75;10.15;;;;;;;23.54;68.70;98017.81;1756705;81;27442;-62
2022/08/19 06:02:06;;;;;;;14.83;9.73;;;;;;;23.60;68.25;98013.17;1757070;81;25408;-60
2022/08/19 06:04:33;;;;;;;11.22;9.98;;;;;;;23.72;68.00;98013.22;1757063;81;25692;-60
2022/08/19 06:06:59;;;;;;;11.22;9.90;;;;;;;23.84;67.67;98021.05;1756724;81;25542;-60
2022/08/19 06:09:25;;;;;;;13.25;9.45;;;;;;;23.94;67.14;98024.91;1756801;81;25694;-60
2022/08/19 06:11:59;;;;;;;13.40;9.75;;;;;;;23.96;66.98;98023.89;1756943;81;27494;-60
2022/08/19 06:14:31;;;;;;;17.00;9.38;;;;;;;24.04;66.53;98025.36;1756457;81;25668;-63
2022/08/19 06:16:59;;;;;;;13.72;9.23;;;;;;;24.10;66.64;98032.70;1757258;81;25411;-62
2022/08/19 06:19:31;;;;;;;14.23;9.78;;;;;;;24.24;66.48;98035.94;1756776;81;25887;-65
2022/08/19 06:21:59;;;;;;;13.75;9.50;;;;;;;24.42;66.41;98039.06;1757139;81;25428;-64
2022/08/19 06:24:28;;;;;;;11.53;9.18;;;;;;;24.59;65.51;98034.40;1756741;81;27510;-65
2022/08/19 06:26:57;;;;;;;12.78;8.73;;;;;;;24.62;65.37;98040.55;1756989;81;25742;-63
2022/08/19 06:29:26;;;;;;;13.83;8.95;;;;;;;24.70;65.02;98048.23;1757189;81;25656;-65
2022/08/19 06:31:56;;;;;;;12.57;8.53;;;;;;;24.85;64.80;98052.19;1757163;81;25443;-65
2022/08/19 06:34:23;;;;;;;9.20;8.30;;;;;;;25.06;63.60;98053.25;1757345;81;25680;-64
2022/08/19 06:36:52;;;;;;;11.45;9.05;;;;;;;25.19;63.20;98052.63;1757348;81;27300;-64
2022/08/19 06:39:26;;;;;;;10.48;8.48;;;;;;;25.29;62.94;98057.24;1756989;81;25907;-65
2022/08/19 06:41:57;;;;;;;12.50;9.35;;;;;;;25.32;62.61;98051.38;1757076;81;25662;-65
2022/08/19 06:44:26;;;;;;;11.33;8.78;;;;;;;25.39;62.58;98058.25;1757038;81;25465;-66
2022/08/19 06:46:55;;;;;;;11.63;9.18;;;;;;;25.49;62.59;98059.88;1757207;81;25458;-66
2022/08/19 06:49:23;;;;;;;16.05;8.53;;;;;;;25.72;62.84;98062.47;1757145;81;27381;-66
2022/08/19 06:51:51;;;;;;;12.50;8.70;;;;;;;25.96;62.05;98065.97;1756751;81;25593;-66
2022/08/19 06:54:19;;;;;;;14.25;8.90;;;;;;;26.17;60.64;98067.52;1757053;81;25625;-64
2022/08/19 06:56:47;;;;;;;10.58;7.53;;;;;;;26.38;60.46;98065.50;1757059;81;25641;-65
2022/08/19 06:59:17;;;;;;;9.58;8.35;;;;;;;26.55;58.78;98065.52;1756861;81;25479;-63
2022/08/19 07:01:49;;;;;;;12.65;8.60;;;;;;;26.74;59.27;98066.65;1757102;81;27371;-65
2022/08/19 07:04:20;;;;;;;10.35;7.90;;;;;;;26.88;59.18;98066.91;1756976;81;25830;-65
2022/08/19 07:06:47;;;;;;;12.40;8.20;;;;;;;27.13;59.00;98074.56;1757047;81;25693;-62
2022/08/19 07:09:16;;;;;;;12.40;8.65;;;;;;;27.47;58.68;98077.48;1756647;81;25649;-60
2022/08/19 07:11:49;;;;;;;9.00;8.08;;;;;;;27.81;58.45;98082.42;1757460;81;25428;-60
2022/08/19 07:14:20;;;;;;;10.58;7.97;;;;;;;27.95;57.01;98091.08;1757065;81;27435;-60
2022/08/19 07:16:50;;;;;;;13.10;8.33;;;;;;;28.20;55.71;98091.56;1757168;81;25678;-61
2022/08/19 07:19:18;;;;;;;10.30;8.45;;;;;;;28.36;55.39;98092.10;1757354;81;25657;-60
2022/08/19 07:21:47;;;;;;;10.38;8.35;;;;;;;28.52;55.89;98089.81;1757284;81;25413;-60
2022/08/19 07:24:15;;;;;;;10.18;7.83;;;;;;;28.82;55.17;98096.09;1757272;81;25477;-61
2022/08/19 07:26:43;;;;;;;9.33;8.25;;;;;;;29.26;53.26;98100.31;1757287;81;28219;-60
2022/08/19 07:29:11;;;;;;;7.95;7.15;;;;;;;29.57;53.47;98096.05;1757115;81;25836;-60
2022/08/19 07:31:37;;;;;;;10.45;7.65;;;;;;;29.79;51.46;98096.84;1747699;81;25846;-61
2022/08/19 07:34:07;;;;;;;9.50;7.47;;;;;;;30.02;51.88;98106.73;1735787;82;25602;-60
2022/08/19 07:36:37;;;;;;;8.18;7.25;;;;;;;30.04;50.91;98106.43;1735874;82;25671;-60
2022/08/19 07:39:12;;;;;;;12.00;7.85;;;;;;;29.99;50.44;98108.43;1735874;82;27453;-62
2022/08/19 07:41:39;;;;;;;8.58;7.30;;;;;;;29.98;49.15;98106.06;1735920;82;25470;-65
2022/08/19 07:44:08;;;;;;;9.15;7.40;;;;;;;29.96;50.14;98102.28;1735645;82;25467;-61
2022/08/19 07:46:39;;;;;;;11.87;7.00;;;;;;;30.24;50.81;98105.93;1736003;82;25511;-65
2022/08/19 07:49:08;;;;;;;9.00;7.05;;;;;;;30.46;49.29;98106.51;1735755;82;25424;-61
2022/08/19 07:51:36;;;;;;;11.20;7.37;;;;;;;30.50;48.77;98105.12;1735599;82;28099;-65
2022/08/19 07:54:03;;;;;;;8.90;6.90;;;;;;;30.61;49.23;98107.52;1735659;82;25631;-62
2022/08/19 07:56:30;;;;;;;10.53;7.55;;;;;;;30.74;48.46;98120.13;1735830;82;25433;-62
2022/08/19 07:58:57;;;;;;;8.95;7.15;;;;;;;30.88;48.38;98113.77;1735606;82;25434;-65
2022/08/19 08:01:27;;;;;;;9.45;7.75;;;;;;;31.15;49.24;98122.16;1735560;82;25403;-62
2022/08/19 08:09:31;;;;;;;8.90;7.35;;;;;;;31.43;46.57;98120.16;1735418;82;25668;-63
2022/08/19 08:12:06;;;;;;;10.68;7.22;;;;;;;31.33;47.77;98119.98;1735854;82;25542;-61
2022/08/19 08:14:43;;;;;;;9.30;6.78;;;;;;;31.60;47.57;98116.25;1735654;82;25579;-61
2022/08/19 08:17:12;;;;;;;7.00;6.30;;;;;;;31.81;45.44;98104.59;1735795;82;27368;-62
2022/08/19 08:19:41;;;;;;;8.55;6.60;;;;;;;31.87;44.83;98104.73;1735442;82;25472;-61
2022/08/19 08:23:21;;;;;;;8.13;6.87;;;;;;;31.92;44.12;98104.88;1735423;82;25433;-60
2022/08/19 08:24:37;;;;;;;9.00;6.90;;;;;;;32.15;44.63;98108.31;1732551;82;25603;-60
2022/08/19 08:27:04;;;;;;;11.12;6.62;;;;;;;32.39;43.85;98108.25;1735609;82;25467;-60
2022/08/19 08:29:33;;;;;;;10.82;6.85;;;;;;;32.76;44.21;98107.34;1735829;82;27451;-60
2022/08/19 08:31:59;;;;;;;10.45;6.60;;;;;;;33.11;43.34;98108.27;1735302;81;25674;-60
2022/08/19 08:34:25;;;;;;;10.75;7.00;;;;;;;33.19;42.39;98107.90;1735441;82;25661;-60
2022/08/19 08:36:52;;;;;;;9.03;6.67;;;;;;;33.26;42.61;98105.48;1735850;82;25427;-60
2022/08/19 08:39:21;;;;;;;9.28;6.50;;;;;;;33.12;42.67;98104.78;1735645;82;25581;-60
2022/08/19 08:42:09;;;;;;;8.63;6.45;;;;;;;32.98;42.08;98102.02;1735882;82;27338;-60
2022/08/19 08:44:56;;;;;;;9.18;6.75;;;;;;;32.92;42.98;98102.67;1735312;82;25688;-60
2022/08/19 08:47:24;;;;;;;11.88;6.62;;;;;;;32.85;42.29;98101.62;1735272;82;25417;-59
2022/08/19 08:50:09;;;;;;;7.87;6.83;;;;;;;32.78;42.63;98100.56;1736054;82;25482;-60
2022/08/19 08:52:43;;;;;;;8.45;6.60;;;;;;;32.52;42.49;98097.52;1735874;82;25468;-60
2022/08/19 08:55:14;;;;;;;9.20;6.53;;;;;;;32.24;43.67;98100.44;1735406;82;27513;-60
2022/08/19 08:57:54;;;;;;;9.90;7.08;;;;;;;32.19;43.25;98099.66;1735600;82;25903;-59
2022/08/19 09:00:29;;;;;;;9.20;7.35;;;;;;;31.93;43.28;98097.20;1735591;82;25656;-59
2022/08/19 09:02:58;;;;;;;11.75;6.78;;;;;;;31.64;44.02;98092.18;1735655;82;25649;-60
2022/08/19 09:05:39;;;;;;;10.30;7.30;;;;;;;31.64;44.63;98100.67;1735982;82;25593;-59
2022/08/19 09:08:44;;;;;;;11.63;6.70;;;;;;;31.66;44.87;98093.89;1735354;82;27517;-60
2022/08/19 09:11:16;;;;;;;11.50;6.78;;;;;;;31.89;44.71;98099.39;1735396;82;25602;-59
2022/08/19 09:14:04;;;;;;;8.88;6.83;;;;;;;32.09;43.72;98102.36;1735445;82;25617;-62
2022/08/19 09:16:31;;;;;;;6.95;6.22;;;;;;;32.20;44.32;98099.80;1734908;82;26309;-60
2022/08/19 09:19:04;;;;;;;11.40;7.25;;;;;;;32.23;44.60;98099.50;1735363;82;25617;-60
2022/08/19 09:21:30;;;;;;;8.88;6.75;;;;;;;32.21;44.50;98100.59;1735730;82;28176;-60
2022/08/19 09:23:58;;;;;;;8.33;6.83;;;;;;;32.24;43.69;98096.19;1735480;82;25451;-60
2022/08/19 09:26:26;;;;;;;8.55;6.55;;;;;;;32.24;44.33;98103.89;1735326;82;25686;-59
2022/08/19 09:28:54;;;;;;;10.50;6.12;;;;;;;32.22;43.00;98100.74;1735270;82;25632;-63
2022/08/19 09:31:25;;;;;;;8.28;6.10;;;;;;;32.04;42.90;98102.38;1735772;81;25420;-60
2022/08/19 09:33:56;;;;;;;7.53;5.90;;;;;;;32.03;42.99;98102.99;1735752;82;27464;-59
2022/08/19 09:36:23;;;;;;;7.72;6.22;;;;;;;32.05;42.71;98108.19;1735163;82;25420;-59
2022/08/19 09:38:49;;;;;;;6.30;5.42;;;;;;;32.10;43.53;98118.09;1735744;82;25618;-59
2022/08/19 09:41:20;;;;;;;6.30;5.70;;;;;;;32.22;42.33;98115.71;1735536;82;26239;-59
2022/08/19 09:43:51;;;;;;;9.65;5.70;;;;;;;32.28;42.55;98111.59;1735693;82;25614;-59
2022/08/19 09:46:20;;;;;;;7.65;5.65;;;;;;;32.18;42.67;98115.86;1735481;82;25608;-59
2022/08/19 09:48:48;;;;;;;9.43;5.67;;;;;;;32.16;42.13;98124.08;1735567;82;25597;-59
2022/08/19 09:51:19;;;;;;;7.17;5.65;;;;;;;32.16;42.55;98119.83;1735681;82;25544;-59
2022/08/19 09:53:53;;;;;;;8.23;5.83;;;;;;;32.25;42.24;98115.38;1735550;82;25443;-59
2022/08/19 09:56:19;;;;;;;8.35;5.55;;;;;;;32.48;42.44;98119.56;1735229;82;25633;-59
2022/08/19 09:58:47;;;;;;;7.12;5.90;;;;;;;32.54;41.26;98119.09;1735686;82;27523;-59
2022/08/19 10:01:27;;;;;;;8.60;6.00;;;;;;;32.67;41.33;98125.19;1735380;82;25684;-59
2022/08/19 10:03:57;;;;;;;9.60;5.50;;;;;;;32.57;41.42;98115.92;1735709;82;25656;-58
2022/08/19 10:06:33;;;;;;;6.30;5.58;;;;;;;32.42;41.12;98118.02;1735797;82;25610;-59
2022/08/19 10:09:00;;;;;;;7.58;5.83;;;;;;;32.40;40.84;98114.06;1735572;82;25560;-59
2022/08/19 10:11:27;;;;;;;10.95;6.00;;;;;;;32.27;41.37;98112.21;1735318;82;29527;-59
2022/08/19 10:13:54;;;;;;;7.15;5.67;;;;;;;32.38;40.86;98113.13;1735449;82;25404;-59
2022/08/19 10:16:23;;;;;;;8.45;5.75;;;;;;;32.71;41.01;98113.03;1735538;82;25405;-59
2022/08/19 10:18:52;;;;;;;6.53;5.83;;;;;;;33.32;39.93;98110.50;1735821;82;25669;-59
2022/08/19 10:21:27;;;;;;;8.15;5.60;;;;;;;33.91;38.58;98118.36;1735668;82;25700;-59
2022/08/19 10:23:57;;;;;;;6.78;5.53;;;;;;;34.50;38.19;98102.43;1735805;82;27606;-64
2022/08/19 10:26:31;;;;;;;8.25;5.60;;;;;;;35.09;35.99;98115.59;1735589;82;25681;-60
2022/08/19 10:28:57;;;;;;;7.30;5.78;;;;;;;35.09;35.81;98094.24;1735698;82;25445;-62
2022/08/19 10:31:29;;;;;;;7.20;5.62;;;;;;;35.02;35.87;98096.86;1735407;82;25862;-64
2022/08/19 10:33:59;;;;;;;8.43;5.45;;;;;;;34.85;35.62;98093.80;1756229;81;25427;-64
2022/08/19 10:36:34;;;;;;;6.60;5.90;;;;;;;34.85;35.61;98086.03;1756827;81;28016;-62
2022/08/19 10:39:05;;;;;;;10.98;5.85;;;;;;;34.99;35.87;98080.14;1756645;81;25675;-61
2022/08/19 10:41:36;;;;;;;5.95;5.30;;;;;;;35.10;35.70;98076.66;1757177;81;25480;-60
2022/08/19 10:44:09;;;;;;;5.70;4.97;;;;;;;35.38;34.92;98076.89;1757149;81;25464;-61
2022/08/19 10:46:41;;;;;;;8.10;5.20;;;;;;;35.76;34.88;98079.27;1757033;81;25570;-61
2022/08/19 10:49:10;;;;;;;6.58;5.00;;;;;;;36.33;33.97;98083.92;1757265;81;27524;-60
2022/08/19 10:56:50;;;;;;;6.03;5.25;;;;;;;36.87;33.97;98081.06;1756915;81;25521;-60
2022/08/19 10:56:55;;;;;;;5.67;4.90;;;;;;;36.97;32.33;98080.20;1753298;81;25606;-62
2022/08/19 10:59:27;;;;;;;7.25;5.12;;;;;;;36.79;32.72;98083.62;1757080;81;25425;-60
2022/08/19 11:01:58;;;;;;;6.17;5.25;;;;;;;36.29;32.30;98077.81;1757563;81;27534;-60
2022/08/19 11:04:25;;;;;;;7.03;4.90;;;;;;;36.23;33.26;98085.53;1755828;81;25741;-64
2022/08/19 11:06:51;;;;;;;8.35;5.53;;;;;;;36.47;32.08;98076.52;1757249;81;25471;-60
2022/08/19 11:09:21;;;;;;;6.33;4.95;;;;;;;36.37;33.14;98083.05;1757136;81;25464;-65
2022/08/19 11:11:48;;;;;;;7.45;5.00;;;;;;;36.38;32.29;98077.49;1756734;81;25688;-60
2022/08/19 11:14:20;;;;;;;7.85;5.37;;;;;;;36.70;31.95;98078.08;1757134;81;27396;-61
2022/08/19 11:16:49;;;;;;;6.03;4.62;;;;;;;36.83;30.73;98085.58;1756889;81;26296;-60
2022/08/19 11:19:18;;;;;;;6.73;4.83;;;;;;;36.74;31.41;98077.22;1757477;81;25462;-60
2022/08/19 11:21:49;;;;;;;5.45;4.92;;;;;;;36.45;31.37;98071.31;1756835;81;26461;-61
2022/08/19 11:24:25;;;;;;;6.95;5.30;;;;;;;36.51;32.36;98072.77;1757324;81;25618;-65
2022/08/19 11:26:59;;;;;;;7.03;4.70;;;;;;;36.37;32.08;98063.86;1757180;81;27439;-60
2022/08/19 11:29:27;;;;;;;10.10;5.22;;;;;;;36.19;31.94;98067.06;1757324;81;25636;-59
2022/08/19 11:31:55;;;;;;;7.72;5.10;;;;;;;36.02;32.75;98073.41;1756966;81;25620;-61
2022/08/19 11:34:27;;;;;;;7.28;5.28;;;;;;;36.02;32.76;98066.28;1735594;81;25515;-59
2022/08/19 11:36:57;;;;;;;6.25;4.92;;;;;;;36.09;33.51;98069.33;1735775;82;25424;-60
2022/08/19 11:39:23;;;;;;;;;;;;;;;35.76;32.97;98067.88;1737844;82;25818;-59
2022/08/19 11:41:51;;;;;;;8.83;5.30;;;;;;;35.64;33.63;98063.31;1735583;82;25707;-59
2022/08/19 11:44:18;;;;;;;10.38;5.15;;;;;;;35.71;34.33;98060.04;1706383;82;25692;-60
2022/08/19 11:46:46;;;;;;;7.55;5.17;;;;;;;35.93;33.13;98060.75;1735756;82;25547;-59
2022/08/19 11:49:15;;;;;;;6.07;5.23;;;;;;;35.82;33.63;98066.49;1735931;82;25493;-64
2022/08/19 11:51:43;;;;;;;5.80;5.30;;;;;;;35.75;33.42;98068.38;1735915;82;27527;-64
2022/08/19 11:54:10;;;;;;;7.70;5.08;;;;;;;35.63;33.82;98071.73;1735662;82;25673;-64
2022/08/19 11:56:38;;;;;;;7.60;4.85;;;;;;;35.32;33.91;98065.44;1735706;82;25441;-63